createdAt,value
2017-03-12T00:00:42.773Z,1021.95
2017-03-12T00:01:52.982Z,1021.97
2017-03-12T00:03:03.115Z,1021.94
2017-03-12T00:04:13.685Z,1021.91
2017-03-12T00:05:22.629Z,1021.95
2017-03-12T00:06:33.174Z,1021.98
2017-03-12T00:07:43.326Z,1021.96
2017-03-12T00:08:53.880Z,1021.99
2017-03-12T00:10:04.047Z,1021.96
2017-03-12T00:11:13.370Z,1021.98
2017-03-12T00:12:23.506Z,1021.97
2017-03-12T00:13:33.256Z,1021.98
2017-03-12T00:14:43.021Z,1021.99
2017-03-12T00:15:52.758Z,1021.96
2017-03-12T00:17:02.077Z,1022
2017-03-12T00:18:12.635Z,1021.95
2017-03-12T00:19:22.767Z,1022.02
2017-03-12T00:20:33.337Z,1022.01
2017-03-12T00:21:43.653Z,1022.01
2017-03-12T00:22:53.783Z,1021.99
2017-03-12T00:24:04.345Z,1021.96
2017-03-12T00:25:14.916Z,1022.03
2017-03-12T00:26:25.505Z,1021.98
2017-03-12T00:27:36.620Z,1021.96
2017-03-12T00:28:47.181Z,1021.95
2017-03-12T00:29:57.347Z,1021.88
2017-03-12T00:31:07.511Z,1021.92
2017-03-12T00:32:17.692Z,1021.96
2017-03-12T00:33:28.094Z,1021.91
2017-03-12T00:34:38.269Z,1021.95
2017-03-12T00:35:48.447Z,1021.99
2017-03-12T00:36:58.219Z,1021.94
2017-03-12T00:38:07.982Z,1021.91
2017-03-12T00:39:18.556Z,1021.97
2017-03-12T00:40:28.712Z,1021.94
2017-03-12T00:41:38.061Z,1021.95
2017-03-12T00:42:47.820Z,1021.95
2017-03-12T00:43:58.014Z,1021.95
2017-03-12T00:45:08.469Z,1021.96
2017-03-12T00:46:19.440Z,1021.96
2017-03-12T00:47:29.987Z,1021.93
2017-03-12T00:48:40.553Z,1021.94
2017-03-12T00:49:51.103Z,1021.98
2017-03-12T00:51:01.262Z,1021.99
2017-03-12T00:52:12.239Z,1021.95
2017-03-12T00:53:22.386Z,1021.92
2017-03-12T00:54:32.939Z,1021.93
2017-03-12T00:55:43.497Z,1021.97
2017-03-12T00:56:54.218Z,1021.92
2017-03-12T00:58:03.539Z,1021.95
2017-03-12T00:59:13.280Z,1021.92
2017-03-12T01:00:23.014Z,1021.94
2017-03-12T01:01:33.568Z,1021.96
2017-03-12T01:02:43.861Z,1021.86
2017-03-12T01:03:53.615Z,1021.89
2017-03-12T01:05:03.784Z,1021.88
2017-03-12T01:06:13.932Z,1021.92
2017-03-12T01:07:24.085Z,1021.92
2017-03-12T01:08:34.391Z,1021.86
2017-03-12T01:09:44.949Z,1021.87
2017-03-12T01:10:55.925Z,1021.82
2017-03-12T01:12:05.666Z,1021.88
2017-03-12T01:13:16.214Z,1021.82
2017-03-12T01:14:26.894Z,1021.87
2017-03-12T01:15:37.058Z,1021.81
2017-03-12T01:16:47.610Z,1021.82
2017-03-12T01:17:58.179Z,1021.84
2017-03-12T01:19:08.333Z,1021.83
2017-03-12T01:20:18.511Z,1021.76
2017-03-12T01:21:29.078Z,1021.76
2017-03-12T01:22:39.646Z,1021.82
2017-03-12T01:23:49.788Z,1021.75
2017-03-12T01:24:59.944Z,1021.67
2017-03-12T01:26:10.242Z,1021.73
2017-03-12T01:27:19.980Z,1021.67
2017-03-12T01:28:29.711Z,1021.72
2017-03-12T01:29:40.292Z,1021.77
2017-03-12T01:30:50.844Z,1021.66
2017-03-12T01:32:01.562Z,1021.71
2017-03-12T01:33:11.295Z,1021.67
2017-03-12T01:34:21.445Z,1021.7
2017-03-12T01:35:31.590Z,1021.65
2017-03-12T01:36:41.764Z,1021.68
2017-03-12T01:37:52.461Z,1021.66
2017-03-12T01:39:02.229Z,1021.65
2017-03-12T01:40:12.790Z,1021.68
2017-03-12T01:41:22.521Z,1021.62
2017-03-12T01:42:33.084Z,1021.6
2017-03-12T01:43:43.792Z,1021.64
2017-03-12T01:44:53.554Z,1021.6
2017-03-12T01:46:04.540Z,1021.61
2017-03-12T01:47:14.706Z,1021.58
2017-03-12T01:48:24.034Z,1021.54
2017-03-12T01:49:34.218Z,1021.52
2017-03-12T01:50:44.366Z,1021.51
2017-03-12T01:51:54.533Z,1021.5
2017-03-12T01:53:04.694Z,1021.48
2017-03-12T01:54:14.035Z,1021.53
2017-03-12T01:55:24.361Z,1021.49
2017-03-12T01:56:34.909Z,1021.49
2017-03-12T01:57:45.069Z,1021.45
2017-03-12T01:58:55.630Z,1021.43
2017-03-12T02:00:06.211Z,1021.49
2017-03-12T02:01:16.373Z,1021.47
2017-03-12T02:02:26.522Z,1021.49
2017-03-12T02:03:37.083Z,1021.43
2017-03-12T02:04:47.669Z,1021.41
2017-03-12T02:05:58.216Z,1021.4
2017-03-12T02:07:09.440Z,1021.42
2017-03-12T02:08:20.413Z,1021.4
2017-03-12T02:09:30.966Z,1021.48
2017-03-12T02:10:41.510Z,1021.42
2017-03-12T02:11:51.682Z,1021.43
2017-03-12T02:13:02.400Z,1021.43
2017-03-12T02:14:12.954Z,1021.43
2017-03-12T02:15:22.739Z,1021.36
2017-03-12T02:16:32.904Z,1021.36
2017-03-12T02:17:43.060Z,1021.37
2017-03-12T02:18:53.777Z,1021.37
2017-03-12T02:20:04.340Z,1021.36
2017-03-12T02:21:14.101Z,1021.38
2017-03-12T02:22:24.670Z,1021.36
2017-03-12T02:23:35.231Z,1021.34
2017-03-12T02:24:46.205Z,1021.32
2017-03-12T02:25:56.784Z,1021.29
2017-03-12T02:27:06.937Z,1021.23
2017-03-12T02:28:17.517Z,1021.25
2017-03-12T02:29:27.257Z,1021.28
2017-03-12T02:30:37.543Z,1021.27
2017-03-12T02:31:47.682Z,1021.25
2017-03-12T02:32:57.439Z,1021.27
2017-03-12T02:34:07.991Z,1021.23
2017-03-12T02:35:18.144Z,1021.26
2017-03-12T02:36:28.331Z,1021.23
2017-03-12T02:37:38.075Z,1021.29
2017-03-12T02:38:48.267Z,1021.29
2017-03-12T02:39:58.410Z,1021.31
2017-03-12T02:41:08.562Z,1021.38
2017-03-12T02:42:18.891Z,1021.36
2017-03-12T02:43:29.496Z,1021.32
2017-03-12T02:44:39.238Z,1021.32
2017-03-12T02:45:49.798Z,1021.37
2017-03-12T02:47:00.386Z,1021.36
2017-03-12T02:48:11.295Z,1021.36
2017-03-12T02:49:21.856Z,1021.36
2017-03-12T02:50:32.423Z,1021.38
2017-03-12T02:51:42.153Z,1021.38
2017-03-12T02:52:52.735Z,1021.38
2017-03-12T02:54:02.978Z,1021.39
2017-03-12T02:55:11.915Z,1021.35
2017-03-12T02:56:22.883Z,1021.36
2017-03-12T02:57:33.037Z,1021.4
2017-03-12T02:58:43.217Z,1021.4
2017-03-12T02:59:53.954Z,1021.4
2017-03-12T03:01:04.514Z,1021.41
2017-03-12T03:02:14.667Z,1021.42
2017-03-12T03:03:24.413Z,1021.41
2017-03-12T03:04:34.151Z,1021.39
2017-03-12T03:05:43.222Z,1021.36
2017-03-12T03:06:53.378Z,1021.38
2017-03-12T03:08:03.539Z,1021.37
2017-03-12T03:09:12.881Z,1021.34
2017-03-12T03:10:22.634Z,1021.31
2017-03-12T03:11:33.335Z,1021.3
2017-03-12T03:12:43.894Z,1021.27
2017-03-12T03:13:54.882Z,1021.32
2017-03-12T03:15:05.447Z,1021.3
2017-03-12T03:16:15.596Z,1021.29
2017-03-12T03:17:25.061Z,1021.29
2017-03-12T03:18:35.622Z,1021.25
2017-03-12T03:19:46.176Z,1021.3
2017-03-12T03:20:56.346Z,1021.28
2017-03-12T03:22:06.915Z,1021.26
2017-03-12T03:23:16.804Z,1021.25
2017-03-12T03:24:26.952Z,1021.26
2017-03-12T03:25:35.913Z,1021.27
2017-03-12T03:26:46.068Z,1021.28
2017-03-12T03:27:55.417Z,1021.31
2017-03-12T03:29:04.899Z,1021.28
2017-03-12T03:30:13.828Z,1021.29
2017-03-12T03:31:24.386Z,1021.27
2017-03-12T03:32:34.956Z,1021.24
2017-03-12T03:33:45.548Z,1021.19
2017-03-12T03:34:56.164Z,1021.2
2017-03-12T03:36:06.332Z,1021.18
2017-03-12T03:37:16.493Z,1021.11
2017-03-12T03:38:27.042Z,1021.14
2017-03-12T03:39:36.800Z,1021.11
2017-03-12T03:40:47.613Z,1021.08
2017-03-12T03:41:58.162Z,1021.09
2017-03-12T03:43:07.497Z,1021.15
2017-03-12T03:44:18.075Z,1021.05
2017-03-12T03:45:28.633Z,1021.12
2017-03-12T03:46:39.595Z,1021.09
2017-03-12T03:47:50.168Z,1021.09
2017-03-12T03:49:00.313Z,1021.11
2017-03-12T03:50:10.039Z,1021.09
2017-03-12T03:51:20.604Z,1021.06
2017-03-12T03:52:30.915Z,1021.02
2017-03-12T03:53:41.479Z,1021.04
2017-03-12T03:54:51.620Z,1020.98
2017-03-12T03:56:00.940Z,1020.96
2017-03-12T03:57:10.695Z,1020.98
2017-03-12T03:58:21.406Z,1020.89
2017-03-12T03:59:31.985Z,1020.94
2017-03-12T04:00:41.725Z,1020.98
2017-03-12T04:01:51.077Z,1020.97
2017-03-12T04:03:01.640Z,1020.94
2017-03-12T04:04:12.258Z,1020.93
2017-03-12T04:05:22.434Z,1020.95
2017-03-12T04:06:32.985Z,1020.94
2017-03-12T04:07:43.553Z,1020.96
2017-03-12T04:08:54.532Z,1020.93
2017-03-12T04:10:05.249Z,1020.97
2017-03-12T04:11:15.825Z,1020.99
2017-03-12T04:12:25.560Z,1021.02
2017-03-12T04:13:35.294Z,1021.01
2017-03-12T04:14:45.840Z,1020.96
2017-03-12T04:15:56.966Z,1020.95
2017-03-12T04:17:07.109Z,1020.94
2017-03-12T04:18:17.264Z,1020.89
2017-03-12T04:19:27.428Z,1020.92
2017-03-12T04:20:37.571Z,1020.89
2017-03-12T04:21:47.984Z,1020.88
2017-03-12T04:22:58.543Z,1020.83
2017-03-12T04:24:08.297Z,1020.84
2017-03-12T04:25:18.880Z,1020.85
2017-03-12T04:26:29.037Z,1020.86
2017-03-12T04:27:39.916Z,1020.8
2017-03-12T04:28:50.063Z,1020.81
2017-03-12T04:30:00.621Z,1020.76
2017-03-12T04:31:11.591Z,1020.8
2017-03-12T04:32:21.753Z,1020.79
2017-03-12T04:33:31.912Z,1020.72
2017-03-12T04:34:42.469Z,1020.8
2017-03-12T04:35:53.434Z,1020.8
2017-03-12T04:37:04.396Z,1020.73
2017-03-12T04:38:14.950Z,1020.72
2017-03-12T04:39:25.139Z,1020.76
2017-03-12T04:40:34.898Z,1020.78
2017-03-12T04:41:45.476Z,1020.8
2017-03-12T04:42:55.220Z,1020.8
2017-03-12T04:44:05.358Z,1020.78
2017-03-12T04:45:15.503Z,1020.78
2017-03-12T04:46:26.466Z,1020.74
2017-03-12T04:47:36.606Z,1020.74
2017-03-12T04:48:47.161Z,1020.73
2017-03-12T04:49:57.738Z,1020.76
2017-03-12T04:51:08.136Z,1020.75
2017-03-12T04:52:18.698Z,1020.75
2017-03-12T04:53:28.854Z,1020.75
2017-03-12T04:54:39.419Z,1020.74
2017-03-12T04:55:50.373Z,1020.69
2017-03-12T04:57:00.675Z,1020.75
2017-03-12T04:58:11.233Z,1020.77
2017-03-12T04:59:21.396Z,1020.76
2017-03-12T05:00:31.954Z,1020.76
2017-03-12T05:01:42.099Z,1020.74
2017-03-12T05:02:52.928Z,1020.74
2017-03-12T05:04:03.081Z,1020.71
2017-03-12T05:05:12.819Z,1020.73
2017-03-12T05:06:22.969Z,1020.66
2017-03-12T05:07:33.535Z,1020.71
2017-03-12T05:08:44.340Z,1020.69
2017-03-12T05:09:54.912Z,1020.7
2017-03-12T05:11:05.074Z,1020.7
2017-03-12T05:12:15.696Z,1020.64
2017-03-12T05:13:26.276Z,1020.65
2017-03-12T05:14:36.983Z,1020.6
2017-03-12T05:15:47.547Z,1020.61
2017-03-12T05:16:57.293Z,1020.63
2017-03-12T05:18:07.867Z,1020.64
2017-03-12T05:19:18.422Z,1020.64
2017-03-12T05:20:29.287Z,1020.65
2017-03-12T05:21:39.440Z,1020.63
2017-03-12T05:22:49.197Z,1020.62
2017-03-12T05:23:59.340Z,1020.62
2017-03-12T05:25:09.084Z,1020.61
2017-03-12T05:26:19.011Z,1020.59
2017-03-12T05:27:29.581Z,1020.59
2017-03-12T05:28:40.142Z,1020.54
2017-03-12T05:29:50.715Z,1020.58
2017-03-12T05:31:01.709Z,1020.56
2017-03-12T05:32:11.709Z,1020.57
2017-03-12T05:33:21.851Z,1020.59
2017-03-12T05:34:32.429Z,1020.56
2017-03-12T05:35:43.435Z,1020.56
2017-03-12T05:36:54.008Z,1020.56
2017-03-12T05:38:04.614Z,1020.54
2017-03-12T05:39:14.797Z,1020.52
2017-03-12T05:40:24.954Z,1020.51
2017-03-12T05:41:35.101Z,1020.52
2017-03-12T05:42:45.246Z,1020.5
2017-03-12T05:43:55.959Z,1020.53
2017-03-12T05:45:05.693Z,1020.61
2017-03-12T05:46:15.439Z,1020.57
2017-03-12T05:47:25.196Z,1020.54
2017-03-12T05:48:35.779Z,1020.52
2017-03-12T05:49:46.195Z,1020.5
2017-03-12T05:50:56.758Z,1020.53
2017-03-12T05:52:06.510Z,1020.51
2017-03-12T05:53:16.661Z,1020.59
2017-03-12T05:54:26.421Z,1020.56
2017-03-12T05:55:36.736Z,1020.61
2017-03-12T05:56:47.301Z,1020.61
2017-03-12T05:57:57.464Z,1020.58
2017-03-12T05:59:07.648Z,1020.57
2017-03-12T06:00:18.615Z,1020.59
2017-03-12T06:01:28.524Z,1020.53
2017-03-12T06:02:38.675Z,1020.54
2017-03-12T06:03:49.253Z,1020.55
2017-03-12T06:04:59.825Z,1020.53
2017-03-12T06:06:10.013Z,1020.57
2017-03-12T06:07:19.839Z,1020.54
2017-03-12T06:08:30.408Z,1020.54
2017-03-12T06:09:40.214Z,1020.53
2017-03-12T06:10:49.548Z,1020.54
2017-03-12T06:12:00.120Z,1020.55
2017-03-12T06:13:09.861Z,1020.53
2017-03-12T06:14:20.031Z,1020.52
2017-03-12T06:15:29.862Z,1020.52
2017-03-12T06:16:40.147Z,1020.49
2017-03-12T06:17:51.149Z,1020.44
2017-03-12T06:19:01.678Z,1020.47
2017-03-12T06:20:11.098Z,1020.54
2017-03-12T06:21:21.659Z,1020.48
2017-03-12T06:22:31.406Z,1020.49
2017-03-12T06:23:41.978Z,1020.48
2017-03-12T06:24:51.749Z,1020.51
2017-03-12T06:26:02.307Z,1020.51
2017-03-12T06:27:12.047Z,1020.53
2017-03-12T06:28:22.207Z,1020.54
2017-03-12T06:29:32.362Z,1020.51
2017-03-12T06:30:42.924Z,1020.55
2017-03-12T06:31:53.903Z,1020.53
2017-03-12T06:33:03.265Z,1020.52
2017-03-12T06:34:13.403Z,1020.56
2017-03-12T06:35:24.371Z,1020.55
2017-03-12T06:36:34.507Z,1020.54
2017-03-12T06:37:44.662Z,1020.52
2017-03-12T06:38:55.214Z,1020.49
2017-03-12T06:40:05.770Z,1020.48
2017-03-12T06:41:15.514Z,1020.53
2017-03-12T06:42:25.653Z,1020.52
2017-03-12T06:43:36.209Z,1020.58
2017-03-12T06:44:46.344Z,1020.52
2017-03-12T06:45:56.924Z,1020.57
2017-03-12T06:47:07.489Z,1020.59
2017-03-12T06:48:17.637Z,1020.58
2017-03-12T06:49:27.805Z,1020.57
2017-03-12T06:50:38.365Z,1020.61
2017-03-12T06:51:48.096Z,1020.59
2017-03-12T06:52:58.671Z,1020.59
2017-03-12T06:54:08.018Z,1020.63
2017-03-12T06:55:18.498Z,1020.58
2017-03-12T06:56:28.232Z,1020.61
2017-03-12T06:57:38.811Z,1020.59
2017-03-12T06:58:49.782Z,1020.57
2017-03-12T06:59:59.928Z,1020.59
2017-03-12T07:01:10.514Z,1020.62
2017-03-12T07:02:21.064Z,1020.61
2017-03-12T07:03:32.028Z,1020.61
2017-03-12T07:04:42.629Z,1020.64
2017-03-12T07:05:53.224Z,1020.68
2017-03-12T07:07:03.365Z,1020.63
2017-03-12T07:08:13.910Z,1020.71
2017-03-12T07:09:24.485Z,1020.58
2017-03-12T07:10:35.466Z,1020.61
2017-03-12T07:11:46.018Z,1020.66
2017-03-12T07:12:56.586Z,1020.67
2017-03-12T07:14:07.144Z,1020.67
2017-03-12T07:15:17.784Z,1020.66
2017-03-12T07:16:27.521Z,1020.64
2017-03-12T07:17:37.659Z,1020.69
2017-03-12T07:18:47.809Z,1020.7
2017-03-12T07:19:57.950Z,1020.69
2017-03-12T07:21:08.348Z,1020.67
2017-03-12T07:22:18.492Z,1020.72
2017-03-12T07:23:28.230Z,1020.74
2017-03-12T07:24:38.832Z,1020.75
2017-03-12T07:25:48.983Z,1020.68
2017-03-12T07:26:59.798Z,1020.72
2017-03-12T07:28:09.948Z,1020.75
2017-03-12T07:29:20.501Z,1020.73
2017-03-12T07:30:30.238Z,1020.75
2017-03-12T07:31:40.416Z,1020.7
2017-03-12T07:32:50.707Z,1020.66
2017-03-12T07:34:01.267Z,1020.7
2017-03-12T07:35:11.882Z,1020.66
2017-03-12T07:36:22.045Z,1020.72
2017-03-12T07:37:32.189Z,1020.7
2017-03-12T07:38:42.892Z,1020.68
2017-03-12T07:39:53.050Z,1020.68
2017-03-12T07:41:03.199Z,1020.7
2017-03-12T07:42:12.956Z,1020.73
2017-03-12T07:43:23.102Z,1020.71
2017-03-12T07:44:33.822Z,1020.73
2017-03-12T07:45:44.383Z,1020.69
2017-03-12T07:46:54.545Z,1020.75
2017-03-12T07:48:04.923Z,1020.73
2017-03-12T07:49:15.475Z,1020.7
2017-03-12T07:50:25.378Z,1020.68
2017-03-12T07:51:35.538Z,1020.69
2017-03-12T07:52:46.108Z,1020.7
2017-03-12T07:53:57.092Z,1020.76
2017-03-12T07:55:07.678Z,1020.68
2017-03-12T07:56:17.970Z,1020.71
2017-03-12T07:57:27.294Z,1020.67
2017-03-12T07:58:37.861Z,1020.67
2017-03-12T07:59:48.018Z,1020.69
2017-03-12T08:00:58.181Z,1020.66
2017-03-12T08:02:08.064Z,1020.71
2017-03-12T08:03:19.067Z,1020.73
2017-03-12T08:04:29.640Z,1020.78
2017-03-12T08:05:40.194Z,1020.66
2017-03-12T08:06:50.354Z,1020.64
2017-03-12T08:08:00.665Z,1020.62
2017-03-12T08:09:11.223Z,1020.62
2017-03-12T08:10:20.988Z,1020.62
2017-03-12T08:11:31.605Z,1020.67
2017-03-12T08:12:41.797Z,1020.71
2017-03-12T08:13:51.746Z,1020.67
2017-03-12T08:15:02.310Z,1020.67
2017-03-12T08:16:12.476Z,1020.67
2017-03-12T08:17:23.026Z,1020.69
2017-03-12T08:18:33.201Z,1020.72
2017-03-12T08:19:42.994Z,1020.68
2017-03-12T08:20:52.739Z,1020.66
2017-03-12T08:22:02.934Z,1020.72
2017-03-12T08:23:12.281Z,1020.65
2017-03-12T08:24:22.421Z,1020.69
2017-03-12T08:25:31.960Z,1020.7
2017-03-12T08:26:41.712Z,1020.7
2017-03-12T08:27:51.867Z,1020.7
2017-03-12T08:29:02.031Z,1020.76
2017-03-12T08:30:12.186Z,1020.78
2017-03-12T08:31:22.087Z,1020.76
2017-03-12T08:32:31.823Z,1020.75
2017-03-12T08:33:42.413Z,1020.78
2017-03-12T08:34:52.562Z,1020.63
2017-03-12T08:36:02.735Z,1020.7
2017-03-12T08:37:13.445Z,1020.7
2017-03-12T08:38:23.181Z,1020.73
2017-03-12T08:39:33.732Z,1020.8
2017-03-12T08:40:43.887Z,1020.72
2017-03-12T08:41:54.060Z,1020.77
2017-03-12T08:43:03.550Z,1020.74
2017-03-12T08:44:13.710Z,1020.78
2017-03-12T08:45:23.462Z,1020.73
2017-03-12T08:46:33.204Z,1020.72
2017-03-12T08:47:42.981Z,1020.75
2017-03-12T08:48:53.662Z,1020.76
2017-03-12T08:50:04.225Z,1020.76
2017-03-12T08:51:13.995Z,1020.8
2017-03-12T08:52:23.765Z,1020.8
2017-03-12T08:53:33.920Z,1020.8
2017-03-12T08:54:44.247Z,1020.74
2017-03-12T08:55:54.003Z,1020.76
2017-03-12T08:57:03.763Z,1020.8
2017-03-12T08:58:13.542Z,1020.83
2017-03-12T08:59:24.104Z,1020.79
2017-03-12T09:00:34.248Z,1020.81
2017-03-12T09:01:43.564Z,1020.81
2017-03-12T09:02:53.315Z,1020.74
2017-03-12T09:04:03.457Z,1020.74
2017-03-12T09:05:14.033Z,1020.72
2017-03-12T09:06:24.945Z,1020.63
2017-03-12T09:07:34.277Z,1020.73
2017-03-12T09:08:44.838Z,1020.61
2017-03-12T09:09:54.986Z,1020.68
2017-03-12T09:11:05.139Z,1020.64
2017-03-12T09:12:15.026Z,1020.62
2017-03-12T09:13:24.777Z,1020.67
2017-03-12T09:14:34.936Z,1020.6
2017-03-12T09:15:45.097Z,1020.66
2017-03-12T09:16:54.415Z,1020.62
2017-03-12T09:18:04.313Z,1020.62
2017-03-12T09:19:14.460Z,1020.59
2017-03-12T09:20:24.209Z,1020.59
2017-03-12T09:21:34.023Z,1020.56
2017-03-12T09:22:43.791Z,1020.55
2017-03-12T09:23:54.100Z,1020.52
2017-03-12T09:25:04.677Z,1020.5
2017-03-12T09:26:15.236Z,1020.53
2017-03-12T09:27:24.589Z,1020.6
2017-03-12T09:28:34.749Z,1020.52
2017-03-12T09:29:44.230Z,1020.4
2017-03-12T09:30:54.793Z,1020.49
2017-03-12T09:32:04.949Z,1020.44
2017-03-12T09:33:14.289Z,1020.44
2017-03-12T09:34:23.626Z,1020.42
2017-03-12T09:35:33.481Z,1020.39
2017-03-12T09:36:43.238Z,1020.38
2017-03-12T09:37:53.824Z,1020.42
2017-03-12T09:39:03.979Z,1020.43
2017-03-12T09:40:12.899Z,1020.44
2017-03-12T09:41:22.549Z,1020.43
2017-03-12T09:42:32.284Z,1020.47
2017-03-12T09:43:42.040Z,1020.43
2017-03-12T09:44:51.769Z,1020.41
2017-03-12T09:46:01.927Z,1020.48
2017-03-12T09:47:11.806Z,1020.41
2017-03-12T09:48:22.370Z,1020.46
2017-03-12T09:49:32.130Z,1020.44
2017-03-12T09:50:42.278Z,1020.45
2017-03-12T09:51:52.847Z,1020.49
2017-03-12T09:53:03.553Z,1020.39
2017-03-12T09:54:14.107Z,1020.5
2017-03-12T09:55:24.268Z,1020.4
2017-03-12T09:56:34.019Z,1020.42
2017-03-12T09:57:44.187Z,1020.44
2017-03-12T09:58:54.400Z,1020.42
2017-03-12T10:00:04.555Z,1020.43
2017-03-12T10:01:15.123Z,1020.4
2017-03-12T10:02:24.464Z,1020.4
2017-03-12T10:03:34.201Z,1020.38
2017-03-12T10:04:43.686Z,1020.39
2017-03-12T10:05:54.252Z,1020.34
2017-03-12T10:07:04.002Z,1020.38
2017-03-12T10:08:13.366Z,1020.36
2017-03-12T10:09:23.937Z,1020.31
2017-03-12T10:10:34.229Z,1020.27
2017-03-12T10:11:44.010Z,1020.29
2017-03-12T10:12:52.931Z,1020.27
2017-03-12T10:14:03.080Z,1020.29
2017-03-12T10:15:13.645Z,1020.3
2017-03-12T10:16:23.568Z,1020.31
2017-03-12T10:17:34.135Z,1020.34
2017-03-12T10:18:43.880Z,1020.32
2017-03-12T10:19:54.455Z,1020.28
2017-03-12T10:21:04.595Z,1020.21
2017-03-12T10:22:13.837Z,1020.24
2017-03-12T10:23:23.981Z,1020.32
2017-03-12T10:24:34.133Z,1020.24
2017-03-12T10:25:43.467Z,1020.2
2017-03-12T10:26:54.014Z,1020.22
2017-03-12T10:28:03.510Z,1020.21
2017-03-12T10:29:13.654Z,1020.22
2017-03-12T10:30:23.813Z,1020.22
2017-03-12T10:31:33.153Z,1020.19
2017-03-12T10:32:42.895Z,1020.14
2017-03-12T10:33:52.368Z,1020.2
2017-03-12T10:35:01.701Z,1020.08
2017-03-12T10:36:11.031Z,1020.14
2017-03-12T10:37:21.179Z,1020.11
2017-03-12T10:38:31.345Z,1020.11
2017-03-12T10:39:41.483Z,1020.09
2017-03-12T10:40:50.816Z,1020.12
2017-03-12T10:42:00.173Z,1020.09
2017-03-12T10:43:09.520Z,1020.05
2017-03-12T10:44:18.445Z,1020.1
2017-03-12T10:45:27.928Z,1020.07
2017-03-12T10:46:38.103Z,1020.06
2017-03-12T10:47:48.264Z,1020.03
2017-03-12T10:48:58.027Z,1020.02
2017-03-12T10:50:07.781Z,1019.99
2017-03-12T10:51:17.987Z,1019.95
2017-03-12T10:52:27.329Z,1019.95
2017-03-12T10:53:37.464Z,1019.95
2017-03-12T10:54:48.027Z,1019.91
2017-03-12T10:55:58.174Z,1019.88
2017-03-12T10:57:08.163Z,1019.91
2017-03-12T10:58:17.919Z,1019.92
2017-03-12T10:59:27.675Z,1019.97
2017-03-12T11:00:37.837Z,1019.86
2017-03-12T11:01:47.996Z,1019.9
2017-03-12T11:02:58.272Z,1019.86
2017-03-12T11:04:07.631Z,1019.86
2017-03-12T11:05:16.582Z,1019.86
2017-03-12T11:06:26.343Z,1019.84
2017-03-12T11:07:36.087Z,1019.87
2017-03-12T11:08:45.403Z,1019.88
2017-03-12T11:09:55.565Z,1019.88
2017-03-12T11:11:05.335Z,1019.91
2017-03-12T11:12:15.487Z,1019.87
2017-03-12T11:13:25.639Z,1019.72
2017-03-12T11:14:35.974Z,1019.86
2017-03-12T11:15:46.136Z,1019.91
2017-03-12T11:16:55.511Z,1019.88
2017-03-12T11:18:05.278Z,1019.85
2017-03-12T11:19:15.466Z,1019.82
2017-03-12T11:20:25.867Z,1019.84
2017-03-12T11:21:35.608Z,1019.84
2017-03-12T11:22:45.768Z,1019.88
2017-03-12T11:23:55.933Z,1019.84
2017-03-12T11:25:05.666Z,1019.83
2017-03-12T11:26:16.142Z,1019.87
2017-03-12T11:27:26.285Z,1019.85
2017-03-12T11:28:36.855Z,1019.86
2017-03-12T11:29:46.622Z,1019.76
2017-03-12T11:30:56.394Z,1019.9
2017-03-12T11:32:06.349Z,1019.87
2017-03-12T11:33:16.110Z,1019.88
2017-03-12T11:34:26.282Z,1019.8
2017-03-12T11:35:36.459Z,1019.9
2017-03-12T11:36:46.617Z,1019.89
2017-03-12T11:37:56.507Z,1019.85
2017-03-12T11:39:06.661Z,1019.86
2017-03-12T11:40:16.829Z,1019.85
2017-03-12T11:41:27.013Z,1019.82
2017-03-12T11:42:37.211Z,1019.82
2017-03-12T11:43:47.628Z,1019.85
2017-03-12T11:44:57.368Z,1019.82
2017-03-12T11:46:07.142Z,1019.83
2017-03-12T11:47:17.719Z,1019.9
2017-03-12T11:48:26.643Z,1019.85
2017-03-12T11:49:35.820Z,1019.84
2017-03-12T11:50:45.187Z,1019.87
2017-03-12T11:51:54.122Z,1019.82
2017-03-12T11:53:03.889Z,1019.8
2017-03-12T11:54:13.230Z,1019.86
2017-03-12T11:55:23.540Z,1019.9
2017-03-12T11:56:33.298Z,1019.87
2017-03-12T11:57:43.877Z,1019.85
2017-03-12T11:58:54.506Z,1019.86
2017-03-12T12:00:04.688Z,1019.85
2017-03-12T12:01:15.404Z,1019.93
2017-03-12T12:02:25.152Z,1019.86
2017-03-12T12:03:35.298Z,1019.92
2017-03-12T12:04:45.073Z,1019.89
2017-03-12T12:05:55.253Z,1019.84
2017-03-12T12:07:05.433Z,1019.82
2017-03-12T12:08:16.429Z,1019.85
2017-03-12T12:09:26.585Z,1019.78
2017-03-12T12:10:37.155Z,1019.75
2017-03-12T12:11:47.353Z,1019.79
2017-03-12T12:12:58.069Z,1019.76
2017-03-12T12:14:07.805Z,1019.72
2017-03-12T12:15:17.567Z,1019.68
2017-03-12T12:16:27.743Z,1019.68
2017-03-12T12:17:37.086Z,1019.71
2017-03-12T12:18:47.248Z,1019.67
2017-03-12T12:19:57.424Z,1019.73
2017-03-12T12:21:07.594Z,1019.72
2017-03-12T12:22:18.576Z,1019.72
2017-03-12T12:23:28.355Z,1019.71
2017-03-12T12:24:38.547Z,1019.69
2017-03-12T12:25:48.719Z,1019.71
2017-03-12T12:26:59.301Z,1019.58
2017-03-12T12:28:09.050Z,1019.68
2017-03-12T12:29:18.808Z,1019.63
2017-03-12T12:30:29.422Z,1019.58
2017-03-12T12:31:39.594Z,1019.64
2017-03-12T12:32:50.172Z,1019.65
2017-03-12T12:34:00.362Z,1019.58
2017-03-12T12:35:10.099Z,1019.66
2017-03-12T12:36:19.590Z,1019.59
2017-03-12T12:37:29.750Z,1019.61
2017-03-12T12:38:40.338Z,1019.63
2017-03-12T12:39:50.923Z,1019.59
2017-03-12T12:41:01.108Z,1019.65
2017-03-12T12:42:11.676Z,1019.6
2017-03-12T12:43:21.415Z,1019.63
2017-03-12T12:44:30.771Z,1019.6
2017-03-12T12:45:40.530Z,1019.66
2017-03-12T12:46:50.695Z,1019.58
2017-03-12T12:48:01.813Z,1019.63
2017-03-12T12:49:12.009Z,1019.62
2017-03-12T12:50:22.587Z,1019.6
2017-03-12T12:51:31.934Z,1019.62
2017-03-12T12:52:42.901Z,1019.63
2017-03-12T12:53:53.638Z,1019.58
2017-03-12T12:55:03.814Z,1019.55
2017-03-12T12:56:14.808Z,1019.54
2017-03-12T12:57:24.986Z,1019.56
2017-03-12T12:58:35.667Z,1019.55
2017-03-12T12:59:46.302Z,1019.52
2017-03-12T13:00:56.572Z,1019.47
2017-03-12T13:02:07.145Z,1019.53
2017-03-12T13:03:17.738Z,1019.41
2017-03-12T13:04:28.320Z,1019.46
2017-03-12T13:05:38.661Z,1019.46
2017-03-12T13:06:49.239Z,1019.43
2017-03-12T13:07:59.408Z,1019.46
2017-03-12T13:09:10.394Z,1019.42
2017-03-12T13:10:20.972Z,1019.41
2017-03-12T13:11:31.711Z,1019.42
2017-03-12T13:12:42.300Z,1019.45
2017-03-12T13:13:52.477Z,1019.44
2017-03-12T13:15:02.674Z,1019.46
2017-03-12T13:16:12.851Z,1019.43
2017-03-12T13:17:22.651Z,1019.45
2017-03-12T13:18:32.420Z,1019.4
2017-03-12T13:19:42.999Z,1019.42
2017-03-12T13:20:53.177Z,1019.39
2017-03-12T13:22:02.562Z,1019.38
2017-03-12T13:23:13.309Z,1019.38
2017-03-12T13:24:23.477Z,1019.39
2017-03-12T13:25:34.451Z,1019.37
2017-03-12T13:26:45.460Z,1019.32
2017-03-12T13:27:55.209Z,1019.34
2017-03-12T13:29:05.505Z,1019.33
2017-03-12T13:30:15.682Z,1019.33
2017-03-12T13:31:26.266Z,1019.39
2017-03-12T13:32:36.839Z,1019.36
2017-03-12T13:33:46.588Z,1019.37
2017-03-12T13:34:56.906Z,1019.34
2017-03-12T13:36:07.058Z,1019.41
2017-03-12T13:37:15.997Z,1019.38
2017-03-12T13:38:26.184Z,1019.39
2017-03-12T13:39:35.942Z,1019.39
2017-03-12T13:40:47.001Z,1019.33
2017-03-12T13:41:57.163Z,1019.37
2017-03-12T13:43:07.330Z,1019.38
2017-03-12T13:44:17.491Z,1019.37
2017-03-12T13:45:27.283Z,1019.33
2017-03-12T13:46:37.977Z,1019.3
2017-03-12T13:47:48.544Z,1019.36
2017-03-12T13:48:58.305Z,1019.31
2017-03-12T13:50:08.105Z,1019.31
2017-03-12T13:51:17.483Z,1019.35
2017-03-12T13:52:26.843Z,1019.34
2017-03-12T13:53:36.642Z,1019.36
2017-03-12T13:54:47.242Z,1019.43
2017-03-12T13:55:57.409Z,1019.49
2017-03-12T13:57:07.568Z,1019.45
2017-03-12T13:58:17.786Z,1019.41
2017-03-12T13:59:28.365Z,1019.4
2017-03-12T14:00:38.936Z,1019.36
2017-03-12T14:01:49.604Z,1019.41
2017-03-12T14:03:00.758Z,1019.42
2017-03-12T14:04:11.787Z,1019.43
2017-03-12T14:05:22.375Z,1019.35
2017-03-12T14:06:32.948Z,1019.41
2017-03-12T14:07:43.526Z,1019.39
2017-03-12T14:08:53.693Z,1019.44
2017-03-12T14:10:04.367Z,1019.43
2017-03-12T14:11:14.531Z,1019.44